createdAt,value
2023-02-11T00:01:09.181Z,101882.19
2023-02-11T00:03:36.219Z,101877.20
2023-02-11T00:06:05.116Z,101883.91
2023-02-11T00:08:32.013Z,101879.95
2023-02-11T00:10:59.113Z,101877.55
2023-02-11T00:13:26.493Z,101875.14
2023-02-11T00:15:54.367Z,101879.25
2023-02-11T00:18:21.308Z,101885.27
2023-02-11T00:20:48.148Z,101882.36
2023-02-11T00:23:15.505Z,101884.95
2023-02-11T00:25:43.183Z,101881.68
2023-02-11T00:28:10.491Z,101872.05
2023-02-11T00:30:37.818Z,101864.83
2023-02-11T00:33:04.926Z,101868.43
2023-02-11T00:35:32.513Z,101869.64
2023-02-11T00:38:00.452Z,101870.34
2023-02-11T00:40:27.156Z,101870.50
2023-02-11T00:42:54.139Z,101871.19
2023-02-11T00:45:21.001Z,101871.86
2023-02-11T00:47:48.655Z,101868.77
2023-02-11T00:50:15.593Z,101866.72
2023-02-11T00:52:43.004Z,101865.88
2023-02-11T00:55:10.245Z,101863.46
2023-02-11T00:57:38.611Z,101864.32
2023-02-11T01:00:06.343Z,101860.87
2023-02-11T01:02:33.239Z,101863.79
2023-02-11T01:05:00.636Z,101868.61
2023-02-11T01:07:27.928Z,101873.09
2023-02-11T01:09:55.059Z,101874.80
2023-02-11T01:12:22.351Z,101869.14
2023-02-11T01:14:49.894Z,101870.67
2023-02-11T01:17:18.738Z,101873.60
2023-02-11T01:27:44.427Z,101859.33
2023-02-11T01:30:12.425Z,101861.20
2023-02-11T01:32:39.663Z,101860.86
2023-02-11T01:35:07.408Z,101860.34
2023-02-11T01:37:35.713Z,101858.95
2023-02-11T01:40:03.970Z,101851.90
2023-02-11T01:42:32.113Z,101856.52
2023-02-11T01:44:59.576Z,101861.69
2023-02-11T01:47:26.280Z,101862.55
2023-02-11T01:49:57.822Z,101870.45
2023-02-11T01:52:31.497Z,101868.04
2023-02-11T01:55:20.070Z,101866.83
2023-02-11T01:57:56.350Z,101869.05
2023-02-11T02:00:28.683Z,101867.34
2023-02-11T02:03:01.555Z,101865.77
2023-02-11T02:05:52.557Z,101867.32
2023-02-11T02:08:40.317Z,101866.96
2023-02-11T02:11:12.494Z,101864.03
2023-02-11T02:13:39.476Z,101858.51
2023-02-11T02:16:09.948Z,101858.52
2023-02-11T02:18:57.589Z,101857.82
2023-02-11T02:21:56.569Z,101859.02
2023-02-11T02:24:39.095Z,101863.65
2023-02-11T02:27:25.202Z,101866.39
2023-02-11T02:30:16.411Z,101865.71
2023-02-11T02:33:21.838Z,101865.19
2023-02-11T02:35:51.530Z,101867.44
2023-02-11T02:38:22.611Z,101862.80
2023-02-11T02:41:03.386Z,101861.76
2023-02-11T02:43:30.727Z,101860.73
2023-02-11T02:46:13.563Z,101860.20
2023-02-11T02:48:40.451Z,101863.46
2023-02-11T02:51:45.950Z,101866.19
2023-02-11T02:54:42.040Z,101863.95
2023-02-11T02:57:18.338Z,101859.46
2023-02-11T03:00:06.885Z,101853.59
2023-02-11T03:03:05.479Z,101846.54
2023-02-11T03:05:54.156Z,101852.89
2023-02-11T03:08:31.556Z,101848.59
2023-02-11T03:10:58.473Z,101846.33
2023-02-11T03:13:27.786Z,101850.30
2023-02-11T03:15:55.481Z,101852.02
2023-02-11T03:18:24.888Z,101847.54
2023-02-11T03:20:53.051Z,101844.08
2023-02-11T03:23:32.797Z,101839.95
2023-02-11T03:26:04.726Z,101839.60
2023-02-11T03:28:37.048Z,101838.91
2023-02-11T03:31:09.810Z,101841.15
2023-02-11T03:33:50.266Z,101838.05
2023-02-11T03:36:50.370Z,101837.02
2023-02-11T03:39:20.532Z,101831.31
2023-02-11T03:41:48.353Z,101835.95
2023-02-11T03:44:15.877Z,101841.83
2023-02-11T03:46:48.652Z,101835.63
2023-02-11T03:49:16.867Z,101837.52
2023-02-11T03:51:46.381Z,101833.38
2023-02-11T03:54:14.867Z,101834.25
2023-02-11T03:56:48.561Z,101834.59
2023-02-11T03:59:15.655Z,101835.45
2023-02-11T04:01:44.756Z,101832.00
2023-02-11T04:04:12.043Z,101827.16
2023-02-11T04:06:38.844Z,101821.83
2023-02-11T04:09:06.257Z,101821.14
2023-02-11T04:11:34.058Z,101825.25
2023-02-11T04:14:00.870Z,101826.98
2023-02-11T04:16:30.375Z,101830.23
2023-02-11T04:18:57.298Z,101829.91
2023-02-11T04:21:24.160Z,101829.39
2023-02-11T04:23:53.080Z,101829.91
2023-02-11T04:26:20.717Z,101827.14
2023-02-11T04:28:48.144Z,101834.04
2023-02-11T04:31:15.496Z,101830.41
2023-02-11T04:33:42.639Z,101834.91
2023-02-11T04:36:09.340Z,101836.63
2023-02-11T04:38:36.049Z,101832.14
2023-02-11T04:41:02.928Z,101833.16
2023-02-11T04:43:30.158Z,101831.77
2023-02-11T04:45:58.177Z,101832.63
2023-02-11T04:48:25.278Z,101835.71
2023-02-11T04:50:52.047Z,101836.22
2023-02-11T04:53:18.761Z,101837.06
2023-02-11T04:55:49.184Z,101837.23
2023-02-11T04:58:17.269Z,101838.25
2023-02-11T05:00:45.842Z,101836.36
2023-02-11T05:03:13.148Z,101838.95
2023-02-11T05:05:41.043Z,101835.86
2023-02-11T05:08:09.797Z,101837.92
2023-02-11T05:10:38.461Z,101838.42
2023-02-11T05:13:05.359Z,101835.84
2023-02-11T05:15:32.753Z,101838.39
2023-02-11T05:18:00.005Z,101837.52
2023-02-11T05:20:27.433Z,101829.92
2023-02-11T05:30:36.234Z,101820.14
2023-02-11T05:33:04.911Z,101812.39
2023-02-11T05:35:33.297Z,101812.87
2023-02-11T05:38:02.082Z,101815.08
2023-02-11T05:40:30.307Z,101812.13
2023-02-11T05:43:00.090Z,101810.20
2023-02-11T05:45:28.375Z,101809.83
2023-02-11T05:47:57.366Z,101806.70
2023-02-11T05:50:25.616Z,101807.38
2023-02-11T05:52:54.102Z,101808.89
2023-02-11T05:55:22.810Z,101813.36
2023-02-11T05:57:51.165Z,101812.63
2023-02-11T06:00:19.666Z,101807.09
2023-02-11T06:02:48.260Z,101806.73
2023-02-11T06:05:16.509Z,101803.94
2023-02-11T06:07:46.013Z,101799.42
2023-02-11T06:10:14.902Z,101796.97
2023-02-11T06:12:43.116Z,101796.41
2023-02-11T06:15:12.690Z,101789.64
2023-02-11T06:17:41.069Z,101792.17
2023-02-11T06:20:10.730Z,101787.48
2023-02-11T06:22:39.164Z,101788.65
2023-02-11T06:25:07.373Z,101783.79
2023-02-11T06:27:35.825Z,101784.11
2023-02-11T06:30:05.903Z,101784.45
2023-02-11T06:32:49.378Z,101788.91
2023-02-11T06:35:18.072Z,101787.84
2023-02-11T06:37:48.172Z,101783.49
2023-02-11T06:40:16.315Z,101781.89
2023-02-11T06:42:44.444Z,101783.92
2023-02-11T06:45:13.596Z,101785.24
2023-02-11T06:47:42.646Z,101782.80
2023-02-11T06:50:12.364Z,101782.29
2023-02-11T06:52:41.010Z,101777.27
2023-02-11T06:55:09.285Z,101779.12
2023-02-11T06:57:38.823Z,101779.24
2023-02-11T07:00:08.197Z,101781.13
2023-02-11T07:02:38.172Z,101781.27
2023-02-11T07:05:07.389Z,101787.09
2023-02-11T07:07:36.954Z,101788.07
2023-02-11T07:10:07.157Z,101779.59
2023-02-11T07:12:40.300Z,101786.77
2023-02-11T07:15:08.572Z,101784.30
2023-02-11T07:17:36.896Z,101786.82
2023-02-11T07:20:05.628Z,101786.09
2023-02-11T07:22:35.082Z,101788.80
2023-02-11T07:25:04.619Z,101786.17
2023-02-11T07:27:34.208Z,101788.56
2023-02-11T07:30:04.881Z,101784.37
2023-02-11T07:32:34.648Z,101792.31
2023-02-11T07:35:04.655Z,101792.48
2023-02-11T07:37:35.307Z,101797.32
2023-02-11T07:40:03.860Z,101790.56
2023-02-11T07:42:32.668Z,101784.64
2023-02-11T07:45:02.288Z,101783.57
2023-02-11T07:47:30.975Z,101781.44
2023-02-11T07:49:59.546Z,101773.23
2023-02-11T07:52:31.308Z,101767.28
2023-02-11T07:54:59.476Z,101762.73
2023-02-11T07:57:27.730Z,101764.77
2023-02-11T07:59:56.355Z,101770.60
2023-02-11T08:02:25.679Z,101774.38
2023-02-11T08:04:54.206Z,101765.66
2023-02-11T08:07:22.423Z,101755.92
2023-02-11T08:09:55.548Z,101749.73
2023-02-11T08:12:23.889Z,101750.80
2023-02-11T08:14:51.936Z,101746.67
2023-02-11T08:17:20.146Z,101748.58
2023-02-11T08:19:48.174Z,101743.09
2023-02-11T08:22:16.132Z,101741.76
2023-02-11T08:24:44.481Z,101743.27
2023-02-11T08:27:12.538Z,101743.20
2023-02-11T08:29:40.715Z,101745.15
2023-02-11T08:32:08.778Z,101741.61
2023-02-11T08:34:37.884Z,101737.77
2023-02-11T08:37:05.911Z,101737.85
2023-02-11T08:39:34.520Z,101736.02
2023-02-11T08:42:02.657Z,101732.57
2023-02-11T08:44:31.173Z,101730.14
2023-02-11T08:46:59.352Z,101729.66
2023-02-11T08:49:27.851Z,101727.26
2023-02-11T08:51:56.428Z,101718.60
2023-02-11T08:54:24.645Z,101719.15
2023-02-11T08:56:52.983Z,101708.57
2023-02-11T08:59:21.455Z,101707.13
2023-02-11T09:01:49.594Z,101701.48
2023-02-11T09:04:18.451Z,101698.29
2023-02-11T09:06:46.628Z,101689.69
2023-02-11T09:09:15.418Z,101681.00
2023-02-11T09:11:43.943Z,101679.45
2023-02-11T09:14:21.974Z,101674.10
2023-02-11T09:16:51.402Z,101668.61
2023-02-11T09:19:19.720Z,101661.96
2023-02-11T09:21:49.879Z,101658.94
2023-02-11T09:24:18.542Z,101652.77
2023-02-11T09:26:46.716Z,101645.76
2023-02-11T09:29:14.743Z,101642.19
2023-02-11T09:31:42.920Z,101636.90
2023-02-11T09:34:11.224Z,101625.92
2023-02-11T09:36:40.796Z,101620.94
2023-02-11T09:39:12.682Z,101611.61
2023-02-11T09:42:12.947Z,101610.29
2023-02-11T09:44:41.582Z,101609.02
2023-02-11T09:47:45.744Z,101602.88
2023-02-11T09:50:15.940Z,101598.66
2023-02-11T09:53:01.705Z,101595.91
2023-02-11T09:55:32.400Z,101592.66
2023-02-11T09:58:01.026Z,101594.06
2023-02-11T10:00:37.111Z,101589.71
2023-02-11T10:03:26.162Z,101580.49
2023-02-11T10:06:27.835Z,101576.18
2023-02-11T10:09:15.745Z,101571.38
2023-02-11T10:11:50.130Z,101564.20
2023-02-11T10:14:23.826Z,101559.83
2023-02-11T10:16:54.605Z,101554.90
2023-02-11T10:19:55.122Z,101553.05
2023-02-11T10:22:25.930Z,101557.39
2023-02-11T10:25:00.340Z,101557.52
2023-02-11T10:27:32.649Z,101552.84
2023-02-11T10:30:28.522Z,101551.65
2023-02-11T10:33:03.456Z,101549.16
2023-02-11T10:35:31.982Z,101544.18
2023-02-11T10:38:00.005Z,101542.81
2023-02-11T10:40:29.601Z,101541.00
2023-02-11T10:43:00.183Z,101536.44
2023-02-11T10:45:55.295Z,101538.63
2023-02-11T10:48:42.378Z,101537.89
2023-02-11T10:51:13.405Z,101537.85
2023-02-11T10:53:43.114Z,101538.45
2023-02-11T10:56:19.831Z,101534.57
2023-02-11T10:59:07.751Z,101530.64
2023-02-11T11:01:50.303Z,101526.91
2023-02-11T11:04:30.636Z,101519.78
2023-02-11T11:07:27.652Z,101522.79
2023-02-11T11:10:26.654Z,101521.04
2023-02-11T11:12:54.679Z,101512.50
2023-02-11T11:15:26.955Z,101512.45
2023-02-11T11:18:21.016Z,101510.59
2023-02-11T11:21:02.906Z,101500.14
2023-02-11T11:23:31.179Z,101498.06
2023-02-11T11:26:06.475Z,101496.76
2023-02-11T11:28:40.630Z,101493.90
2023-02-11T11:31:19.316Z,101489.84
2023-02-11T11:33:48.892Z,101488.89
2023-02-11T11:36:18.890Z,101484.15
2023-02-11T11:38:58.100Z,101475.16
2023-02-11T11:41:28.027Z,101470.90
2023-02-11T11:44:16.177Z,101472.42
2023-02-11T11:46:44.287Z,101470.36
2023-02-11T11:49:29.634Z,101467.72
2023-02-11T11:52:18.496Z,101459.60
2023-02-11T11:54:50.746Z,101451.93
2023-02-11T11:57:19.643Z,101446.90
2023-02-11T11:59:47.736Z,101446.74
2023-02-11T12:02:53.189Z,101440.08
2023-02-11T12:05:33.165Z,101434.13
2023-02-11T12:08:40.230Z,101432.52
2023-02-11T12:11:30.044Z,101423.06
2023-02-11T12:14:24.155Z,101413.45
2023-02-11T12:17:14.192Z,101408.42
2023-02-11T12:20:03.210Z,101406.15
2023-02-11T12:23:10.076Z,101405.56
2023-02-11T12:26:01.144Z,101402.23
2023-02-11T12:28:40.996Z,101399.73
2023-02-11T12:31:32.656Z,101389.89
2023-02-11T12:34:12.526Z,101383.39
2023-02-11T12:36:54.473Z,101378.98
2023-02-11T12:39:40.747Z,101371.63
2023-02-11T12:42:40.287Z,101363.65
2023-02-11T12:45:11.959Z,101361.17
2023-02-11T12:48:11.164Z,101360.11
2023-02-11T12:51:08.163Z,101354.95
2023-02-11T12:53:46.219Z,101352.81
2023-02-11T12:56:16.616Z,101348.55
2023-02-11T12:58:45.895Z,101346.71
2023-02-11T13:01:23.230Z,101345.02
2023-02-11T13:04:06.100Z,101340.48
2023-02-11T13:06:45.569Z,101337.04
2023-02-11T13:09:19.058Z,101336.38
2023-02-11T13:11:52.097Z,101338.02
2023-02-11T13:14:32.362Z,101333.16
2023-02-11T13:17:02.624Z,101323.45
2023-02-11T13:19:34.511Z,101324.14
2023-02-11T13:22:03.387Z,101319.54
2023-02-11T13:24:49.415Z,101320.54
2023-02-11T13:27:39.115Z,101323.06
2023-02-11T13:30:26.105Z,101320.33
2023-02-11T13:32:58.155Z,101323.42
2023-02-11T13:35:36.419Z,101321.21
2023-02-11T13:38:22.456Z,101322.19
2023-02-11T13:41:04.748Z,101313.30
2023-02-11T13:43:34.881Z,101310.91
2023-02-11T13:46:04.724Z,101310.55
2023-02-11T13:48:33.911Z,101309.48
2023-02-11T13:51:05.950Z,101308.85
2023-02-11T13:54:05.291Z,101307.77
2023-02-11T13:56:38.281Z,101300.80
2023-02-11T13:59:27.689Z,101299.10
2023-02-11T14:02:38.824Z,101299.65
2023-02-11T14:05:47.926Z,101293.35
2023-02-11T14:08:40.612Z,101292.30
2023-02-11T14:11:58.146Z,101290.58
2023-02-11T14:14:36.180Z,101290.10
2023-02-11T14:17:18.927Z,101282.34
2023-02-11T14:19:49.497Z,101275.63
2023-02-11T14:22:32.543Z,101279.36
2023-02-11T14:25:05.054Z,101279.17
2023-02-11T14:27:57.197Z,101273.96
2023-02-11T14:30:39.438Z,101274.77
2023-02-11T14:33:21.041Z,101273.86
2023-02-11T14:36:14.349Z,101267.52
2023-02-11T14:39:09.451Z,101267.90
2023-02-11T14:41:44.519Z,101261.79
2023-02-11T14:44:20.467Z,101257.58
2023-02-11T14:46:53.486Z,101258.55
2023-02-11T14:49:35.311Z,101254.84
2023-02-11T14:52:31.862Z,101247.91
2023-02-11T14:55:32.512Z,101251.87
2023-02-11T14:58:28.176Z,101248.57
2023-02-11T15:01:10.173Z,101246.68
2023-02-11T15:11:18.130Z,101233.10
2023-02-11T15:13:49.904Z,101229.44
2023-02-11T15:16:22.868Z,101227.36
2023-02-11T15:18:57.128Z,101216.66
2023-02-11T15:21:27.807Z,101213.96
2023-02-11T15:23:57.290Z,101212.16
2023-02-11T15:26:26.240Z,101208.86
2023-02-11T15:28:54.727Z,101205.30
2023-02-11T15:31:25.057Z,101210.21
2023-02-11T15:33:54.044Z,101206.83
2023-02-11T15:36:28.732Z,101207.45
2023-02-11T15:39:16.814Z,101205.66
2023-02-11T15:41:45.088Z,101192.85
2023-02-11T15:44:30.126Z,101191.57
2023-02-11T15:46:59.356Z,101189.22
2023-02-11T15:49:27.533Z,101187.86
2023-02-11T15:51:56.030Z,101182.74
2023-02-11T15:54:26.897Z,101180.77
2023-02-11T15:57:00.014Z,101175.78
2023-02-11T15:59:41.032Z,101171.84
2023-02-11T16:02:17.080Z,101167.48
2023-02-11T17:05:55.064Z,101097.09
2023-02-11T17:08:23.851Z,101091.54
2023-02-11T17:10:51.100Z,101081.75
2023-02-11T17:13:18.259Z,101077.55
2023-02-11T17:15:45.205Z,101066.80
2023-02-11T17:18:13.988Z,101064.29
2023-02-11T17:20:41.666Z,101065.30
2023-02-11T17:23:08.599Z,101061.14
2023-02-11T17:25:37.691Z,101056.80
2023-02-11T17:28:05.401Z,101050.77
2023-02-11T17:30:32.297Z,101049.55
2023-02-11T17:32:59.349Z,101046.26
2023-02-11T17:35:26.344Z,101040.64
2023-02-11T17:37:53.461Z,101040.44
2023-02-11T17:40:21.156Z,101033.94
2023-02-11T17:42:48.360Z,101027.03
2023-02-11T17:45:16.033Z,101029.95
2023-02-11T17:47:43.070Z,101023.35
2023-02-11T17:50:10.347Z,101016.20
2023-02-11T17:52:41.860Z,101009.24
2023-02-11T17:55:08.907Z,101002.31
2023-02-11T17:57:36.280Z,100996.42
2023-02-11T18:00:04.778Z,100991.35
2023-02-11T18:02:39.906Z,100985.60
2023-02-11T18:05:07.338Z,100986.60
2023-02-11T18:07:34.922Z,100980.67
2023-02-11T18:10:07.577Z,100973.70
2023-02-11T18:12:35.003Z,100971.94
2023-02-11T18:15:02.209Z,100972.43
2023-02-11T18:17:29.974Z,100968.29
2023-02-11T18:19:57.450Z,100954.71
2023-02-11T18:22:24.582Z,100954.69
2023-02-11T18:24:54.471Z,100950.12
2023-02-11T18:27:21.760Z,100937.66
2023-02-11T18:29:48.801Z,100944.81
2023-02-11T18:32:15.643Z,100947.05
2023-02-11T18:34:42.906Z,100947.75
2023-02-11T18:37:13.826Z,100941.98
2023-02-11T18:39:41.930Z,100926.52
2023-02-11T18:42:09.321Z,100928.28
2023-02-11T18:44:37.136Z,100924.02
2023-02-11T18:47:03.929Z,100908.65
2023-02-11T18:49:32.671Z,100909.20
2023-02-11T18:51:59.621Z,100902.73
2023-02-11T18:54:28.794Z,100904.09
2023-02-11T18:56:55.769Z,100902.48
2023-02-11T18:59:24.032Z,100902.11
2023-02-11T19:01:51.252Z,100901.42
2023-02-11T19:04:19.429Z,100901.40
2023-02-11T19:06:48.251Z,100901.89
2023-02-11T19:09:17.231Z,100900.95
2023-02-11T19:11:50.130Z,100893.23
2023-02-11T19:14:19.123Z,100891.81
2023-02-11T19:16:47.378Z,100887.96
2023-02-11T19:19:14.502Z,100886.89
2023-02-11T19:21:43.237Z,100886.16
2023-02-11T19:24:10.609Z,100881.98
2023-02-11T19:26:38.359Z,100877.80
2023-02-11T19:29:06.426Z,100872.37
2023-02-11T19:31:34.663Z,100873.71
2023-02-11T19:34:02.621Z,100869.86
2023-02-11T19:36:29.568Z,100865.77
2023-02-11T19:39:00.895Z,100862.07
2023-02-11T19:41:29.051Z,100852.52
2023-02-11T19:43:56.502Z,100844.70
2023-02-11T19:46:26.317Z,100839.45
2023-02-11T19:48:53.472Z,100831.29
2023-02-11T19:51:20.799Z,100829.48
2023-02-11T19:53:47.989Z,100824.27
2023-02-11T19:56:15.632Z,100818.02
2023-02-11T19:58:42.805Z,100808.48
2023-02-11T20:01:14.697Z,100804.99
2023-02-11T20:03:42.710Z,100798.02
2023-02-11T20:06:12.567Z,100790.54
2023-02-11T20:08:40.509Z,100784.86
2023-02-11T20:11:14.318Z,100791.92
2023-02-11T20:13:42.785Z,100787.04
2023-02-11T20:16:12.768Z,100788.55
2023-02-11T20:18:40.160Z,100788.20
2023-02-11T20:21:08.760Z,100790.26
2023-02-11T20:23:37.632Z,100788.50
2023-02-11T20:26:08.773Z,100782.77
2023-02-11T20:28:35.898Z,100777.92
2023-02-11T20:31:04.642Z,100777.41
2023-02-11T20:33:32.355Z,100780.36
2023-02-11T20:36:10.599Z,100776.41
2023-02-11T20:38:38.080Z,100769.86
2023-02-11T20:41:09.200Z,100767.62
2023-02-11T20:43:38.089Z,100766.39
2023-02-11T20:46:07.012Z,100758.95
2023-02-11T20:48:35.352Z,100753.77
2023-02-11T20:51:10.899Z,100753.30
2023-02-11T20:53:39.897Z,100741.89
2023-02-11T20:56:08.590Z,100740.16
2023-02-11T20:58:35.527Z,100730.47
2023-02-11T21:01:18.146Z,100727.23
2023-02-11T21:03:52.270Z,100723.77
2023-02-11T21:06:25.764Z,100718.27
2023-02-11T21:08:53.698Z,100716.16
2023-02-11T21:11:20.774Z,100703.98
2023-02-11T21:13:50.478Z,100705.52
2023-02-11T21:16:19.922Z,100697.70
2023-02-11T21:18:48.795Z,100695.40
2023-02-11T21:21:16.646Z,100689.14
2023-02-11T21:23:44.758Z,100689.30
2023-02-11T21:26:16.577Z,100688.80
2023-02-11T21:36:45.015Z,100668.60
2023-02-11T21:39:13.089Z,100667.98
2023-02-11T21:41:39.674Z,100666.42
2023-02-11T21:44:06.409Z,100663.84
2023-02-11T21:46:33.703Z,100665.96
2023-02-11T21:49:03.001Z,100664.83
2023-02-11T21:51:30.384Z,100662.40
2023-02-11T21:53:59.178Z,100661.54
2023-02-11T21:56:27.554Z,100658.27
2023-02-11T21:58:55.342Z,100651.54
2023-02-11T22:01:27.281Z,100649.20
2023-02-11T22:03:54.021Z,100640.48
2023-02-11T22:06:22.824Z,100641.81
2023-02-11T22:08:49.851Z,100635.37
2023-02-11T22:11:16.949Z,100631.85
2023-02-11T22:13:43.852Z,100625.20
2023-02-11T22:16:12.513Z,100618.45
2023-02-11T22:18:39.578Z,100613.94
2023-02-11T22:21:12.366Z,100610.46
2023-02-11T22:23:39.644Z,100604.40
2023-02-11T22:26:08.718Z,100598.84
2023-02-11T22:28:38.502Z,100596.59
2023-02-11T22:31:06.505Z,100591.72
2023-02-11T22:33:33.751Z,100588.71
2023-02-11T22:36:05.431Z,100588.67
2023-02-11T22:38:33.682Z,100583.46
2023-02-11T22:41:04.273Z,100585.38
2023-02-11T22:43:31.403Z,100577.44
2023-02-11T22:46:02.156Z,100568.58
2023-02-11T22:48:29.248Z,100562.58
2023-02-11T22:50:56.395Z,100560.90
2023-02-11T22:53:24.975Z,100558.35
2023-02-11T22:55:52.682Z,100554.98
2023-02-11T22:58:19.774Z,100547.73
2023-02-11T23:00:46.646Z,100546.36
2023-02-11T23:03:14.621Z,100541.54
2023-02-11T23:05:41.495Z,100544.94
2023-02-11T23:08:10.345Z,100542.95
2023-02-11T23:10:39.177Z,100542.02
2023-02-11T23:13:09.863Z,100538.65
2023-02-11T23:15:40.205Z,100539.35
2023-02-11T23:18:07.441Z,100543.27
2023-02-11T23:20:36.431Z,100546.11
2023-02-11T23:23:03.588Z,100546.20
2023-02-11T23:25:31.056Z,100546.94
2023-02-11T23:27:58.407Z,100540.40
2023-02-11T23:30:25.270Z,100534.93
2023-02-11T23:32:53.928Z,100533.11
2023-02-11T23:35:24.848Z,100524.88
2023-02-11T23:37:52.226Z,100523.89
2023-02-11T23:40:20.094Z,100514.41
2023-02-11T23:42:47.245Z,100513.38
2023-02-11T23:45:14.189Z,100513.29
2023-02-11T23:47:41.953Z,100510.19
2023-02-11T23:50:09.527Z,100507.63
2023-02-11T23:52:36.975Z,100503.82
2023-02-11T23:55:04.538Z,100499.83
2023-02-11T23:57:32.740Z,100495.45
